sensor_id;sensor_type;location;lat;lon;timestamp;pressure;altitude;pressure_sealevel;temperature;humidity
30516;BME280;17297;54.022;10.760;2023-04-06T00:00:22;102030.91;;;6.22;56.63
30516;BME280;17297;54.022;10.760;2023-04-06T00:02:47;102031.91;;;6.21;56.62
30516;BME280;17297;54.022;10.760;2023-04-06T00:05:13;102038.25;;;6.20;56.79
30516;BME280;17297;54.022;10.760;2023-04-06T00:07:38;102038.25;;;6.20;56.82
30516;BME280;17297;54.022;10.760;2023-04-06T00:10:05;102041.88;;;6.19;56.73
30516;BME280;17297;54.022;10.760;2023-04-06T00:12:30;102041.03;;;6.18;56.86
30516;BME280;17297;54.022;10.760;2023-04-06T00:14:56;102041.19;;;6.17;56.92
30516;BME280;17297;54.022;10.760;2023-04-06T00:17:21;102042.97;;;6.16;56.77
30516;BME280;17297;54.022;10.760;2023-04-06T00:19:46;102034.13;;;6.16;56.97
30516;BME280;17297;54.022;10.760;2023-04-06T00:22:12;102035.09;;;6.15;56.75
30516;BME280;17297;54.022;10.760;2023-04-06T00:24:37;102031.44;;;6.16;57.00
30516;BME280;17297;54.022;10.760;2023-04-06T00:27:02;102034.28;;;6.14;56.83
30516;BME280;17297;54.022;10.760;2023-04-06T00:29:28;102036.78;;;6.16;57.01
30516;BME280;17297;54.022;10.760;2023-04-06T00:31:53;102033.44;;;6.14;57.10
30516;BME280;17297;54.022;10.760;2023-04-06T00:34:18;102031.72;;;6.13;56.86
30516;BME280;17297;54.022;10.760;2023-04-06T00:36:44;102032.69;;;6.12;56.91
30516;BME280;17297;54.022;10.760;2023-04-06T00:39:10;102038.06;;;6.12;57.14
30516;BME280;17297;54.022;10.760;2023-04-06T00:41:35;102030.03;;;6.12;57.13
30516;BME280;17297;54.022;10.760;2023-04-06T00:44:00;102034.53;;;6.11;57.02
30516;BME280;17297;54.022;10.760;2023-04-06T00:46:26;102028.34;;;6.11;57.12
30516;BME280;17297;54.022;10.760;2023-04-06T00:48:51;102026.63;;;6.10;57.02
30516;BME280;17297;54.022;10.760;2023-04-06T00:51:16;102021.28;;;6.10;56.96
30516;BME280;17297;54.022;10.760;2023-04-06T00:53:42;102019.72;;;6.07;57.07
30516;BME280;17297;54.022;10.760;2023-04-06T00:56:09;102013.69;;;6.05;57.08
30516;BME280;17297;54.022;10.760;2023-04-06T00:58:46;102016.63;;;6.02;57.01
30516;BME280;17297;54.022;10.760;2023-04-06T01:01:11;102015.78;;;6.01;57.15
30516;BME280;17297;54.022;10.760;2023-04-06T01:03:37;102016.06;;;5.98;57.05
30516;BME280;17297;54.022;10.760;2023-04-06T01:06:03;102010.81;;;5.97;57.07
30516;BME280;17297;54.022;10.760;2023-04-06T01:08:35;102010.97;;;5.95;57.09
30516;BME280;17297;54.022;10.760;2023-04-06T01:11:13;102009.25;;;5.94;57.16
30516;BME280;17297;54.022;10.760;2023-04-06T01:13:39;102001.47;;;5.91;57.17
30516;BME280;17297;54.022;10.760;2023-04-06T01:16:08;102008.66;;;5.91;57.00
30516;BME280;17297;54.022;10.760;2023-04-06T01:19:01;102009.75;;;5.88;57.06
30516;BME280;17297;54.022;10.760;2023-04-06T01:21:30;102003.72;;;5.86;57.04
30516;BME280;17297;54.022;10.760;2023-04-06T01:24:10;102000.31;;;5.84;57.07
30516;BME280;17297;54.022;10.760;2023-04-06T01:26:59;102007.50;;;5.84;57.04
30516;BME280;17297;54.022;10.760;2023-04-06T01:29:29;102001.31;;;5.83;57.29
30516;BME280;17297;54.022;10.760;2023-04-06T01:31:54;102003.00;;;5.84;57.29
30516;BME280;17297;54.022;10.760;2023-04-06T01:34:20;102000.47;;;5.83;57.18
30516;BME280;17297;54.022;10.760;2023-04-06T01:36:46;102004.09;;;5.82;57.21
30516;BME280;17297;54.022;10.760;2023-04-06T01:39:27;101998.06;;;5.79;57.01
30516;BME280;17297;54.022;10.760;2023-04-06T01:41:52;102005.19;;;5.79;57.08
30516;BME280;17297;54.022;10.760;2023-04-06T01:44:20;102000.84;;;5.78;57.33
30516;BME280;17297;54.022;10.760;2023-04-06T01:46:51;102004.34;;;5.78;57.30
30516;BME280;17297;54.022;10.760;2023-04-06T01:49:18;102000.84;;;5.78;57.31
30516;BME280;17297;54.022;10.760;2023-04-06T01:51:48;102005.34;;;5.77;57.33
30516;BME280;17297;54.022;10.760;2023-04-06T01:54:13;102007.88;;;5.79;57.38
30516;BME280;17297;54.022;10.760;2023-04-06T01:57:08;102004.50;;;5.77;57.18
30516;BME280;17297;54.022;10.760;2023-04-06T01:59:41;101995.75;;;5.75;57.22
30516;BME280;17297;54.022;10.760;2023-04-06T02:02:14;101985.09;;;5.75;57.25
30516;BME280;17297;54.022;10.760;2023-04-06T02:04:48;101994.09;;;5.74;57.19
30516;BME280;17297;54.022;10.760;2023-04-06T02:07:14;101994.09;;;5.74;57.27
30516;BME280;17297;54.022;10.760;2023-04-06T02:09:39;101988.00;;;5.72;57.53
30516;BME280;17297;54.022;10.760;2023-04-06T02:12:09;101989.00;;;5.71;57.34
30516;BME280;17297;54.022;10.760;2023-04-06T02:14:34;101985.50;;;5.70;57.44
30516;BME280;17297;54.022;10.760;2023-04-06T02:17:00;101981.94;;;5.70;57.42
30516;BME280;17297;54.022;10.760;2023-04-06T02:19:25;101986.59;;;5.68;57.44
30516;BME280;17297;54.022;10.760;2023-04-06T02:21:51;101981.38;;;5.66;57.39
30516;BME280;17297;54.022;10.760;2023-04-06T02:24:16;101983.34;;;5.64;57.21
30516;BME280;17297;54.022;10.760;2023-04-06T02:26:42;101984.28;;;5.63;57.43
30516;BME280;17297;54.022;10.760;2023-04-06T02:29:08;101979.09;;;5.62;57.22
30516;BME280;17297;54.022;10.760;2023-04-06T02:31:33;101977.38;;;5.61;57.49
30516;BME280;17297;54.022;10.760;2023-04-06T02:34:00;101974.88;;;5.59;57.33
30516;BME280;17297;54.022;10.760;2023-04-06T02:36:27;101980.31;;;5.57;57.39
30516;BME280;17297;54.022;10.760;2023-04-06T02:38:53;101981.19;;;5.58;57.47
30516;BME280;17297;54.022;10.760;2023-04-06T02:41:18;101980.31;;;5.57;57.46
30516;BME280;17297;54.022;10.760;2023-04-06T02:43:44;101982.28;;;5.55;57.44
30516;BME280;17297;54.022;10.760;2023-04-06T02:46:17;101978.91;;;5.53;57.36
30516;BME280;17297;54.022;10.760;2023-04-06T02:48:42;101979.88;;;5.52;57.41
30516;BME280;17297;54.022;10.760;2023-04-06T02:51:08;101982.66;;;5.51;57.47
30516;BME280;17297;54.022;10.760;2023-04-06T02:53:34;101974.81;;;5.49;57.59
30516;BME280;17297;54.022;10.760;2023-04-06T02:55:59;101977.59;;;5.48;57.30
30516;BME280;17297;54.022;10.760;2023-04-06T02:58:32;101977.84;;;5.45;57.50
30516;BME280;17297;54.022;10.760;2023-04-06T03:00:58;101978.84;;;5.44;57.60
30516;BME280;17297;54.022;10.760;2023-04-06T03:03:23;101976.31;;;5.42;57.56
30516;BME280;17297;54.022;10.760;2023-04-06T03:05:49;101970.81;;;5.44;57.66
30516;BME280;17297;54.022;10.760;2023-04-06T03:08:21;101972.66;;;5.43;57.62
30516;BME280;17297;54.022;10.760;2023-04-06T03:10:46;101973.66;;;5.42;57.51
30516;BME280;17297;54.022;10.760;2023-04-06T03:13:13;101978.97;;;5.42;57.76
30516;BME280;17297;54.022;10.760;2023-04-06T03:15:50;101980.78;;;5.42;57.62
30516;BME280;17297;54.022;10.760;2023-04-06T03:18:22;101972.91;;;5.40;57.73
30516;BME280;17297;54.022;10.760;2023-04-06T03:20:49;101979.09;;;5.41;57.75
30516;BME280;17297;54.022;10.760;2023-04-06T03:23:16;101972.06;;;5.40;57.53
30516;BME280;17297;54.022;10.760;2023-04-06T03:25:43;101981.03;;;5.39;57.64
30516;BME280;17297;54.022;10.760;2023-04-06T03:28:13;101978.38;;;5.39;57.78
30516;BME280;17297;54.022;10.760;2023-04-06T03:30:58;101985.41;;;5.40;57.77
30516;BME280;17297;54.022;10.760;2023-04-06T03:33:39;101982.03;;;5.38;57.72
30516;BME280;17297;54.022;10.760;2023-04-06T03:36:07;101980.34;;;5.37;57.75
30516;BME280;17297;54.022;10.760;2023-04-06T03:38:37;101986.78;;;5.34;57.90
30516;BME280;17297;54.022;10.760;2023-04-06T03:41:08;101984.09;;;5.34;57.59
30516;BME280;17297;54.022;10.760;2023-04-06T03:43:34;101989.44;;;5.34;57.68
30516;BME280;17297;54.022;10.760;2023-04-06T03:45:59;101990.44;;;5.33;57.87
30516;BME280;17297;54.022;10.760;2023-04-06T03:48:26;101978.88;;;5.32;57.76
30516;BME280;17297;54.022;10.760;2023-04-06T03:50:52;101981.69;;;5.31;57.68
30516;BME280;17297;54.022;10.760;2023-04-06T03:53:17;101979.88;;;5.31;57.85
30516;BME280;17297;54.022;10.760;2023-04-06T03:55:42;101979.03;;;5.31;57.92
30516;BME280;17297;54.022;10.760;2023-04-06T03:58:08;101980.84;;;5.30;57.87
30516;BME280;17297;54.022;10.760;2023-04-06T04:00:33;101979.03;;;5.31;57.84
30516;BME280;17297;54.022;10.760;2023-04-06T04:02:58;101984.34;;;5.31;57.90
30516;BME280;17297;54.022;10.760;2023-04-06T04:05:24;101988.72;;;5.32;57.90
30516;BME280;17297;54.022;10.760;2023-04-06T04:07:51;101984.34;;;5.31;58.00
30516;BME280;17297;54.022;10.760;2023-04-06T04:10:17;101989.56;;;5.32;58.02
30516;BME280;17297;54.022;10.760;2023-04-06T04:12:43;101994.78;;;5.34;58.03
30516;BME280;17297;54.022;10.760;2023-04-06T04:15:08;101996.47;;;5.35;58.03
30516;BME280;17297;54.022;10.760;2023-04-06T04:17:34;101998.28;;;5.35;57.81
30516;BME280;17297;54.022;10.760;2023-04-06T04:19:59;101991.28;;;5.33;57.98
30516;BME280;17297;54.022;10.760;2023-04-06T04:22:24;101992.94;;;5.35;58.09
30516;BME280;17297;54.022;10.760;2023-04-06T04:24:50;101989.44;;;5.34;58.06
30516;BME280;17297;54.022;10.760;2023-04-06T04:27:16;101991.28;;;5.33;57.96
30516;BME280;17297;54.022;10.760;2023-04-06T04:29:41;101994.78;;;5.34;57.95
30516;BME280;17297;54.022;10.760;2023-04-06T04:32:10;101993.09;;;5.33;58.00
30516;BME280;17297;54.022;10.760;2023-04-06T04:34:36;101990.44;;;5.33;58.19
30516;BME280;17297;54.022;10.760;2023-04-06T04:37:06;101994.78;;;5.34;58.18
30516;BME280;17297;54.022;10.760;2023-04-06T04:39:46;101987.63;;;5.35;58.12
30516;BME280;17297;54.022;10.760;2023-04-06T04:42:12;101991.84;;;5.37;58.19
30516;BME280;17297;54.022;10.760;2023-04-06T04:44:43;101987.69;;;5.44;58.33
30516;BME280;17297;54.022;10.760;2023-04-06T04:47:09;101988.47;;;5.56;58.43
30516;BME280;17297;54.022;10.760;2023-04-06T04:49:44;101990.41;;;5.75;58.32
30516;BME280;17297;54.022;10.760;2023-04-06T04:52:13;101998.31;;;5.97;58.25
30516;BME280;17297;54.022;10.760;2023-04-06T04:54:50;101996.06;;;6.23;58.44
30516;BME280;17297;54.022;10.760;2023-04-06T04:57:22;101995.97;;;6.44;58.25
30516;BME280;17297;54.022;10.760;2023-04-06T04:59:48;101992.50;;;6.63;58.12
30516;BME280;17297;54.022;10.760;2023-04-06T05:02:17;102001.00;;;6.78;57.92
30516;BME280;17297;54.022;10.760;2023-04-06T05:05:08;102004.03;;;7.04;58.11
30516;BME280;17297;54.022;10.760;2023-04-06T05:07:38;101995.84;;;7.35;57.98
30516;BME280;17297;54.022;10.760;2023-04-06T05:10:06;101995.41;;;7.59;57.96
30516;BME280;17297;54.022;10.760;2023-04-06T05:12:37;101988.47;;;7.76;57.63
30516;BME280;17297;54.022;10.760;2023-04-06T05:15:08;101998.31;;;7.95;57.65
30516;BME280;17297;54.022;10.760;2023-04-06T05:17:33;101990.03;;;8.16;57.44
30516;BME280;17297;54.022;10.760;2023-04-06T05:19:59;101994.13;;;8.20;57.32
30516;BME280;17297;54.022;10.760;2023-04-06T05:22:26;101995.84;;;8.11;56.99
30516;BME280;17297;54.022;10.760;2023-04-06T05:25:03;101995.34;;;7.98;57.13
30516;BME280;17297;54.022;10.760;2023-04-06T05:27:30;101991.97;;;7.86;57.14
30516;BME280;17297;54.022;10.760;2023-04-06T05:29:57;101998.19;;;7.77;57.46
30516;BME280;17297;54.022;10.760;2023-04-06T05:32:24;102002.00;;;7.74;57.34
30516;BME280;17297;54.022;10.760;2023-04-06T05:34:51;102004.13;;;7.71;57.44
30516;BME280;17297;54.022;10.760;2023-04-06T05:37:16;101999.91;;;7.68;57.52
30516;BME280;17297;54.022;10.760;2023-04-06T05:39:41;102003.13;;;7.72;57.41
30516;BME280;17297;54.022;10.760;2023-04-06T05:42:07;102003.28;;;7.80;57.58
30516;BME280;17297;54.022;10.760;2023-04-06T05:44:45;102001.13;;;7.93;57.54
30516;BME280;17297;54.022;10.760;2023-04-06T05:47:13;101998.63;;;8.19;57.62
30516;BME280;17297;54.022;10.760;2023-04-06T05:49:43;101997.41;;;8.51;57.47
30516;BME280;17297;54.022;10.760;2023-04-06T05:52:14;101996.78;;;8.85;57.54
30516;BME280;17297;54.022;10.760;2023-04-06T05:54:43;101994.25;;;9.37;57.56
30516;BME280;17297;54.022;10.760;2023-04-06T05:57:09;101998.59;;;10.00;57.34
30516;BME280;17297;54.022;10.760;2023-04-06T05:59:34;102002.91;;;10.53;57.29
30516;BME280;17297;54.022;10.760;2023-04-06T06:02:00;102003.00;;;10.77;56.67
30516;BME280;17297;54.022;10.760;2023-04-06T06:04:30;102002.88;;;10.95;56.22
30516;BME280;17297;54.022;10.760;2023-04-06T06:06:56;101997.72;;;11.10;56.02
30516;BME280;17297;54.022;10.760;2023-04-06T06:09:42;101997.91;;;11.41;55.96
30516;BME280;17297;54.022;10.760;2023-04-06T06:12:16;101998.75;;;11.74;55.91
30516;BME280;17297;54.022;10.760;2023-04-06T06:14:42;101995.16;;;12.07;55.25
30516;BME280;17297;54.022;10.760;2023-04-06T06:17:08;102001.34;;;12.23;54.90
30516;BME280;17297;54.022;10.760;2023-04-06T06:19:37;101992.88;;;12.35;54.25
30516;BME280;17297;54.022;10.760;2023-04-06T06:22:06;102000.66;;;12.30;53.89
30516;BME280;17297;54.022;10.760;2023-04-06T06:24:35;102003.75;;;12.18;53.67
30516;BME280;17297;54.022;10.760;2023-04-06T06:27:00;101997.88;;;12.07;53.42
30516;BME280;17297;54.022;10.760;2023-04-06T06:29:28;101998.84;;;12.14;53.28
30516;BME280;17297;54.022;10.760;2023-04-06T06:31:53;101995.44;;;12.28;52.89
30516;BME280;17297;54.022;10.760;2023-04-06T06:34:19;101994.59;;;12.28;52.58
30516;BME280;17297;54.022;10.760;2023-04-06T06:36:47;102003.06;;;12.16;52.32
30516;BME280;17297;54.022;10.760;2023-04-06T06:39:12;102004.09;;;12.07;52.34
30516;BME280;17297;54.022;10.760;2023-04-06T06:41:38;102005.63;;;12.01;52.00
30516;BME280;17297;54.022;10.760;2023-04-06T06:44:04;102011.88;;;11.86;51.97
30516;BME280;17297;54.022;10.760;2023-04-06T06:46:30;102013.22;;;11.73;52.18
30516;BME280;17297;54.022;10.760;2023-04-06T06:48:56;102008.16;;;11.70;52.29
30516;BME280;17297;54.022;10.760;2023-04-06T06:51:22;102004.13;;;11.58;52.02
30516;BME280;17297;54.022;10.760;2023-04-06T06:53:47;102009.50;;;11.33;52.34
30516;BME280;17297;54.022;10.760;2023-04-06T06:56:13;102013.56;;;11.29;52.70
30516;BME280;17297;54.022;10.760;2023-04-06T06:58:38;102013.22;;;11.41;52.66
30516;BME280;17297;54.022;10.760;2023-04-06T07:01:03;102002.94;;;11.52;52.48
30516;BME280;17297;54.022;10.760;2023-04-06T07:03:30;102008.69;;;11.66;52.22
30516;BME280;17297;54.022;10.760;2023-04-06T07:05:55;102001.94;;;11.70;52.16
30516;BME280;17297;54.022;10.760;2023-04-06T07:08:23;102004.63;;;11.78;52.08
30516;BME280;17297;54.022;10.760;2023-04-06T07:10:55;102006.81;;;11.83;52.05
30516;BME280;17297;54.022;10.760;2023-04-06T07:13:24;102002.44;;;11.82;51.86
30516;BME280;17297;54.022;10.760;2023-04-06T07:15:54;102007.97;;;11.80;51.89
30516;BME280;17297;54.022;10.760;2023-04-06T07:18:20;102009.19;;;11.77;51.91
30516;BME280;17297;54.022;10.760;2023-04-06T07:20:48;102009.34;;;11.84;51.71
30516;BME280;17297;54.022;10.760;2023-04-06T07:23:15;101998.88;;;12.06;51.51
30516;BME280;17297;54.022;10.760;2023-04-06T07:25:40;101996.41;;;12.35;51.38
30516;BME280;17297;54.022;10.760;2023-04-06T07:28:08;101999.50;;;12.63;50.48
30516;BME280;17297;54.022;10.760;2023-04-06T07:30:34;101988.94;;;12.85;50.54
30516;BME280;17297;54.022;10.760;2023-04-06T07:32:59;101997.06;;;13.08;50.15
30516;BME280;17297;54.022;10.760;2023-04-06T07:35:27;101996.97;;;13.24;49.58
30516;BME280;17297;54.022;10.760;2023-04-06T07:37:53;102008.44;;;13.26;49.07
30516;BME280;17297;54.022;10.760;2023-04-06T07:40:20;101999.66;;;13.24;48.71
30516;BME280;17297;54.022;10.760;2023-04-06T07:42:45;102000.53;;;13.16;48.37
30516;BME280;17297;54.022;10.760;2023-04-06T07:45:11;101999.38;;;12.88;48.29
30516;BME280;17297;54.022;10.760;2023-04-06T07:47:37;101997.88;;;12.46;48.63
30516;BME280;17297;54.022;10.760;2023-04-06T07:50:03;102002.41;;;12.06;48.83
30516;BME280;17297;54.022;10.760;2023-04-06T07:52:29;102001.09;;;11.69;49.25
30516;BME280;17297;54.022;10.760;2023-04-06T07:54:54;102005.47;;;11.38;48.91
30516;BME280;17297;54.022;10.760;2023-04-06T07:57:20;102006.97;;;11.07;49.41
30516;BME280;17297;54.022;10.760;2023-04-06T07:59:45;102002.19;;;10.85;49.53
30516;BME280;17297;54.022;10.760;2023-04-06T08:02:11;102005.00;;;10.67;49.89
30516;BME280;17297;54.022;10.760;2023-04-06T08:04:36;102008.16;;;10.54;50.04
30516;BME280;17297;54.022;10.760;2023-04-06T08:07:01;101996.00;;;10.42;50.25
30516;BME280;17297;54.022;10.760;2023-04-06T08:09:27;102014.78;;;10.34;50.32
30516;BME280;17297;54.022;10.760;2023-04-06T08:11:53;102011.03;;;10.27;50.63
30516;BME280;17297;54.022;10.760;2023-04-06T08:14:18;102013.31;;;10.22;50.37
30516;BME280;17297;54.022;10.760;2023-04-06T08:16:45;102010.44;;;10.15;50.36
30516;BME280;17297;54.022;10.760;2023-04-06T08:19:10;102011.06;;;10.09;50.79
30516;BME280;17297;54.022;10.760;2023-04-06T08:21:36;102009.56;;;10.06;50.99
30516;BME280;17297;54.022;10.760;2023-04-06T08:24:02;102009.56;;;10.06;50.95
30516;BME280;17297;54.022;10.760;2023-04-06T08:26:27;102005.34;;;10.04;51.12
30516;BME280;17297;54.022;10.760;2023-04-06T08:28:53;102007.66;;;9.99;51.58
30516;BME280;17297;54.022;10.760;2023-04-06T08:31:18;102002.78;;;9.94;52.20
30516;BME280;17297;54.022;10.760;2023-04-06T08:33:44;101999.19;;;9.85;52.56
30516;BME280;17297;54.022;10.760;2023-04-06T08:36:13;101993.44;;;9.80;52.55
30516;BME280;17297;54.022;10.760;2023-04-06T08:38:40;102001.13;;;9.75;52.83
30516;BME280;17297;54.022;10.760;2023-04-06T08:41:15;101994.69;;;9.68;53.52
30516;BME280;17297;54.022;10.760;2023-04-06T08:43:56;102003.66;;;9.59;53.89
30516;BME280;17297;54.022;10.760;2023-04-06T08:46:23;101993.56;;;9.53;53.93
30516;BME280;17297;54.022;10.760;2023-04-06T08:48:55;101994.88;;;9.48;54.33
30516;BME280;17297;54.022;10.760;2023-04-06T08:51:23;101994.69;;;9.50;54.47
30516;BME280;17297;54.022;10.760;2023-04-06T08:53:49;101995.25;;;9.54;54.61
30516;BME280;17297;54.022;10.760;2023-04-06T08:56:15;102005.69;;;9.57;54.45
30516;BME280;17297;54.022;10.760;2023-04-06T08:58:41;101995.63;;;9.59;54.70
30516;BME280;17297;54.022;10.760;2023-04-06T09:01:08;101991.94;;;9.60;54.72
30516;BME280;17297;54.022;10.760;2023-04-06T09:03:37;101993.63;;;9.61;54.86
30516;BME280;17297;54.022;10.760;2023-04-06T09:06:03;102002.38;;;9.63;54.82
30516;BME280;17297;54.022;10.760;2023-04-06T09:08:29;101998.50;;;9.65;54.95
30516;BME280;17297;54.022;10.760;2023-04-06T09:10:55;101993.69;;;9.69;54.68
30516;BME280;17297;54.022;10.760;2023-04-06T09:13:20;101989.81;;;9.71;54.84
30516;BME280;17297;54.022;10.760;2023-04-06T09:15:46;101989.50;;;9.75;54.90
30516;BME280;17297;54.022;10.760;2023-04-06T09:18:11;101986.81;;;9.75;54.86
30516;BME280;17297;54.022;10.760;2023-04-06T09:20:36;101980.31;;;9.77;54.69
30516;BME280;17297;54.022;10.760;2023-04-06T09:23:02;101977.31;;;9.80;54.73
30516;BME280;17297;54.022;10.760;2023-04-06T09:25:27;101972.75;;;9.81;54.58
30516;BME280;17297;54.022;10.760;2023-04-06T09:28:03;101984.91;;;9.85;54.76
30516;BME280;17297;54.022;10.760;2023-04-06T09:30:29;101979.88;;;9.90;54.73
30516;BME280;17297;54.022;10.760;2023-04-06T09:32:56;101974.69;;;9.97;54.50
30516;BME280;17297;54.022;10.760;2023-04-06T09:35:23;101977.44;;;10.05;54.23
30516;BME280;17297;54.022;10.760;2023-04-06T09:37:50;101971.13;;;10.14;54.01
30516;BME280;17297;54.022;10.760;2023-04-06T09:40:17;101972.84;;;10.23;53.03
30516;BME280;17297;54.022;10.760;2023-04-06T09:42:47;101972.28;;;10.37;51.75
30516;BME280;17297;54.022;10.760;2023-04-06T09:45:14;101967.28;;;10.51;51.49
30516;BME280;17297;54.022;10.760;2023-04-06T09:47:43;101962.59;;;10.61;51.05
30516;BME280;17297;54.022;10.760;2023-04-06T09:50:10;101957.91;;;10.71;50.40
30516;BME280;17297;54.022;10.760;2023-04-06T09:52:40;101965.00;;;10.80;49.84
30516;BME280;17297;54.022;10.760;2023-04-06T09:55:07;101962.00;;;10.92;49.69
30516;BME280;17297;54.022;10.760;2023-04-06T09:57:50;101956.97;;;10.97;49.12
30516;BME280;17297;54.022;10.760;2023-04-06T10:00:22;101955.44;;;11.02;47.68
30516;BME280;17297;54.022;10.760;2023-04-06T10:05:33;101956.13;;;11.13;47.62
30516;BME280;17297;54.022;10.760;2023-04-06T10:08:06;101948.22;;;11.19;47.85
30516;BME280;17297;54.022;10.760;2023-04-06T10:10:33;101950.06;;;11.27;47.93
30516;BME280;17297;54.022;10.760;2023-04-06T10:12:59;101953.78;;;11.34;47.50
30516;BME280;17297;54.022;10.760;2023-04-06T10:15:25;101948.72;;;11.39;46.48
30516;BME280;17297;54.022;10.760;2023-04-06T10:17:51;101945.34;;;11.45;46.15
30516;BME280;17297;54.022;10.760;2023-04-06T10:20:39;101952.06;;;11.49;45.77
30516;BME280;17297;54.022;10.760;2023-04-06T10:25:55;101941.16;;;11.59;45.61
30516;BME280;17297;54.022;10.760;2023-04-06T10:28:20;101943.31;;;11.64;45.08
30516;BME280;17297;54.022;10.760;2023-04-06T10:30:46;101939.44;;;11.66;45.68
30516;BME280;17297;54.022;10.760;2023-04-06T10:33:13;101932.34;;;11.73;44.95
30516;BME280;17297;54.022;10.760;2023-04-06T10:35:38;101938.06;;;11.78;43.66
30516;BME280;17297;54.022;10.760;2023-04-06T10:38:04;101935.56;;;11.85;43.44
30516;BME280;17297;54.022;10.760;2023-04-06T10:40:30;101925.94;;;11.91;42.24
30516;BME280;17297;54.022;10.760;2023-04-06T10:43:27;101926.25;;;11.96;43.38
30516;BME280;17297;54.022;10.760;2023-04-06T10:45:56;101925.53;;;12.10;43.44
30516;BME280;17297;54.022;10.760;2023-04-06T10:48:22;101921.59;;;12.21;43.36
30516;BME280;17297;54.022;10.760;2023-04-06T10:50:51;101926.97;;;12.29;42.07
30516;BME280;17297;54.022;10.760;2023-04-06T10:53:27;101928.47;;;12.32;41.57
30516;BME280;17297;54.022;10.760;2023-04-06T10:55:54;101927.66;;;12.31;41.17
30516;BME280;17297;54.022;10.760;2023-04-06T10:58:24;101927.44;;;12.33;41.12
30516;BME280;17297;54.022;10.760;2023-04-06T11:00:50;101919.84;;;12.36;41.85
30516;BME280;17297;54.022;10.760;2023-04-06T11:03:16;101917.31;;;12.43;41.69
30516;BME280;17297;54.022;10.760;2023-04-06T11:05:45;101921.97;;;12.49;41.32
30516;BME280;17297;54.022;10.760;2023-04-06T11:08:29;101913.50;;;12.52;41.22
30516;BME280;17297;54.022;10.760;2023-04-06T11:11:11;101916.88;;;12.54;40.45
30516;BME280;17297;54.022;10.760;2023-04-06T11:13:41;101914.03;;;12.56;40.63
30516;BME280;17297;54.022;10.760;2023-04-06T11:16:07;101914.03;;;12.56;39.22
30516;BME280;17297;54.022;10.760;2023-04-06T11:18:37;101914.88;;;12.56;39.21
30516;BME280;17297;54.022;10.760;2023-04-06T11:21:02;101913.16;;;12.55;39.61
30516;BME280;17297;54.022;10.760;2023-04-06T11:23:27;101914.88;;;12.56;40.41
30516;BME280;17297;54.022;10.760;2023-04-06T11:25:53;101915.50;;;12.58;39.56
30516;BME280;17297;54.022;10.760;2023-04-06T11:28:19;101910.31;;;12.57;39.85
30516;BME280;17297;54.022;10.760;2023-04-06T11:30:45;101908.44;;;12.57;39.01
30516;BME280;17297;54.022;10.760;2023-04-06T11:33:20;101907.75;;;12.55;39.13
30516;BME280;17297;54.022;10.760;2023-04-06T11:35:46;101904.91;;;12.57;39.54
30516;BME280;17297;54.022;10.760;2023-04-06T11:38:11;101899.31;;;12.58;38.79
30516;BME280;17297;54.022;10.760;2023-04-06T11:40:37;101907.59;;;12.57;39.82
30516;BME280;17297;54.022;10.760;2023-04-06T11:43:03;101908.06;;;12.60;39.57
30516;BME280;17297;54.022;10.760;2023-04-06T11:45:39;101900.28;;;12.65;39.43
30516;BME280;17297;54.022;10.760;2023-04-06T11:48:04;101902.44;;;12.70;39.27
30516;BME280;17297;54.022;10.760;2023-04-06T11:50:33;101896.88;;;12.71;38.84
30516;BME280;17297;54.022;10.760;2023-04-06T11:53:02;101894.81;;;12.74;38.72
30516;BME280;17297;54.022;10.760;2023-04-06T11:55:28;101895.03;;;12.72;39.41
30516;BME280;17297;54.022;10.760;2023-04-06T11:57:53;101896.88;;;12.71;38.83
30516;BME280;17297;54.022;10.760;2023-04-06T12:00:20;101895.38;;;12.69;38.61
30516;BME280;17297;54.022;10.760;2023-04-06T12:02:47;101885.41;;;12.69;38.98
30516;BME280;17297;54.022;10.760;2023-04-06T12:05:12;101877.63;;;12.75;38.98
30516;BME280;17297;54.022;10.760;2023-04-06T12:07:38;101889.53;;;12.80;38.51
30516;BME280;17297;54.022;10.760;2023-04-06T12:10:03;101882.94;;;12.83;38.29
30516;BME280;17297;54.022;10.760;2023-04-06T12:12:29;101868.44;;;12.84;37.18
30516;BME280;17297;54.022;10.760;2023-04-06T12:14:55;101881.94;;;12.84;37.62
30516;BME280;17297;54.022;10.760;2023-04-06T12:17:21;101880.25;;;12.83;37.96
30516;BME280;17297;54.022;10.760;2023-04-06T12:19:46;101879.88;;;12.86;37.94
30516;BME280;17297;54.022;10.760;2023-04-06T12:22:12;101880.72;;;12.86;38.06
30516;BME280;17297;54.022;10.760;2023-04-06T12:24:37;101884.66;;;12.84;38.40
30516;BME280;17297;54.022;10.760;2023-04-06T12:27:03;101876.72;;;12.82;37.74
30516;BME280;17297;54.022;10.760;2023-04-06T12:29:28;101881.44;;;12.80;37.32
30516;BME280;17297;54.022;10.760;2023-04-06T12:31:53;101871.00;;;12.77;37.13
30516;BME280;17297;54.022;10.760;2023-04-06T12:34:19;101875.41;;;12.78;37.17
30516;BME280;17297;54.022;10.760;2023-04-06T12:36:44;101867.31;;;12.78;37.43
30516;BME280;17297;54.022;10.760;2023-04-06T12:39:10;101862.53;;;12.80;37.32
30516;BME280;17297;54.022;10.760;2023-04-06T12:41:36;101870.63;;;12.80;37.39
30516;BME280;17297;54.022;10.760;2023-04-06T12:44:02;101854.81;;;12.77;37.82
30516;BME280;17297;54.022;10.760;2023-04-06T12:46:28;101858.72;;;12.75;38.50
30516;BME280;17297;54.022;10.760;2023-04-06T12:48:55;101857.38;;;12.70;37.88
30516;BME280;17297;54.022;10.760;2023-04-06T12:51:21;101844.09;;;12.69;37.29
30516;BME280;17297;54.022;10.760;2023-04-06T12:53:47;101847.63;;;12.69;37.27